sensor_id;sensor_type;location;lat;lon;timestamp;P1;durP1;ratioP1;P2;durP2;ratioP2
70052;SDS011;57398;52.032;4.376;2022-07-10T00:01:01;5.83;;;1.67;;
70052;SDS011;57398;52.032;4.376;2022-07-10T00:03:29;4.47;;;1.70;;
70052;SDS011;57398;52.032;4.376;2022-07-10T00:05:56;5.45;;;1.83;;
70052;SDS011;57398;52.032;4.376;2022-07-10T00:08:24;5.45;;;1.77;;
70052;SDS011;57398;52.032;4.376;2022-07-10T00:10:51;5.40;;;1.90;;
70052;SDS011;57398;52.032;4.376;2022-07-10T00:13:19;4.87;;;1.77;;
70052;SDS011;57398;52.032;4.376;2022-07-10T00:15:48;5.45;;;1.80;;
70052;SDS011;57398;52.032;4.376;2022-07-10T00:18:15;6.55;;;1.60;;
70052;SDS011;57398;52.032;4.376;2022-07-10T00:20:43;4.97;;;1.70;;
70052;SDS011;57398;52.032;4.376;2022-07-10T00:23:10;7.07;;;1.85;;
70052;SDS011;57398;52.032;4.376;2022-07-10T00:25:38;6.93;;;1.70;;
70052;SDS011;57398;52.032;4.376;2022-07-10T00:28:06;4.60;;;1.88;;
70052;SDS011;57398;52.032;4.376;2022-07-10T00:30:33;5.93;;;1.80;;
70052;SDS011;57398;52.032;4.376;2022-07-10T00:33:02;3.78;;;1.60;;
70052;SDS011;57398;52.032;4.376;2022-07-10T00:35:30;6.25;;;1.90;;
70052;SDS011;57398;52.032;4.376;2022-07-10T00:37:57;4.80;;;1.40;;
70052;SDS011;57398;52.032;4.376;2022-07-10T00:40:25;5.80;;;1.48;;
70052;SDS011;57398;52.032;4.376;2022-07-10T00:42:53;4.72;;;1.50;;
70052;SDS011;57398;52.032;4.376;2022-07-10T00:45:20;4.63;;;1.45;;
70052;SDS011;57398;52.032;4.376;2022-07-10T00:47:47;5.28;;;1.65;;
70052;SDS011;57398;52.032;4.376;2022-07-10T00:50:16;3.80;;;1.60;;
70052;SDS011;57398;52.032;4.376;2022-07-10T00:52:44;5.40;;;1.50;;
70052;SDS011;57398;52.032;4.376;2022-07-10T00:55:13;5.22;;;1.60;;
70052;SDS011;57398;52.032;4.376;2022-07-10T00:57:40;3.38;;;1.60;;
70052;SDS011;57398;52.032;4.376;2022-07-10T01:00:08;7.35;;;1.90;;
70052;SDS011;57398;52.032;4.376;2022-07-10T01:02:37;7.13;;;1.50;;
70052;SDS011;57398;52.032;4.376;2022-07-10T01:05:07;4.00;;;1.52;;
70052;SDS011;57398;52.032;4.376;2022-07-10T01:07:36;4.32;;;1.55;;
70052;SDS011;57398;52.032;4.376;2022-07-10T01:10:03;4.38;;;1.50;;
70052;SDS011;57398;52.032;4.376;2022-07-10T01:12:31;5.00;;;1.50;;
70052;SDS011;57398;52.032;4.376;2022-07-10T01:14:58;5.00;;;1.57;;
70052;SDS011;57398;52.032;4.376;2022-07-10T01:17:26;4.60;;;1.40;;
70052;SDS011;57398;52.032;4.376;2022-07-10T01:19:55;5.30;;;1.85;;
70052;SDS011;57398;52.032;4.376;2022-07-10T01:22:24;5.28;;;1.60;;
70052;SDS011;57398;52.032;4.376;2022-07-10T01:24:52;4.50;;;1.40;;
70052;SDS011;57398;52.032;4.376;2022-07-10T01:27:20;3.53;;;1.30;;
70052;SDS011;57398;52.032;4.376;2022-07-10T01:29:48;4.10;;;1.60;;
70052;SDS011;57398;52.032;4.376;2022-07-10T01:32:15;4.57;;;1.73;;
70052;SDS011;57398;52.032;4.376;2022-07-10T01:34:43;5.65;;;1.70;;
70052;SDS011;57398;52.032;4.376;2022-07-10T01:37:11;4.60;;;1.60;;
70052;SDS011;57398;52.032;4.376;2022-07-10T01:39:40;5.80;;;2.00;;
70052;SDS011;57398;52.032;4.376;2022-07-10T01:42:08;6.03;;;1.88;;
70052;SDS011;57398;52.032;4.376;2022-07-10T01:44:35;4.88;;;1.75;;
70052;SDS011;57398;52.032;4.376;2022-07-10T01:47:03;4.30;;;1.75;;
70052;SDS011;57398;52.032;4.376;2022-07-10T01:49:31;5.70;;;1.55;;
70052;SDS011;57398;52.032;4.376;2022-07-10T01:52:00;4.60;;;1.57;;
70052;SDS011;57398;52.032;4.376;2022-07-10T01:54:27;3.90;;;1.90;;
70052;SDS011;57398;52.032;4.376;2022-07-10T01:56:56;5.22;;;1.90;;
70052;SDS011;57398;52.032;4.376;2022-07-10T01:59:24;7.55;;;2.10;;
70052;SDS011;57398;52.032;4.376;2022-07-10T02:01:51;6.03;;;2.10;;
70052;SDS011;57398;52.032;4.376;2022-07-10T02:04:19;4.80;;;1.83;;
70052;SDS011;57398;52.032;4.376;2022-07-10T02:07:04;6.03;;;2.00;;
70052;SDS011;57398;52.032;4.376;2022-07-10T02:09:32;5.45;;;2.00;;
70052;SDS011;57398;52.032;4.376;2022-07-10T02:12:01;7.03;;;2.10;;
70052;SDS011;57398;52.032;4.376;2022-07-10T02:14:28;5.88;;;2.10;;
70052;SDS011;57398;52.032;4.376;2022-07-10T02:16:56;7.63;;;2.20;;
70052;SDS011;57398;52.032;4.376;2022-07-10T02:19:24;5.78;;;1.80;;
70052;SDS011;57398;52.032;4.376;2022-07-10T02:21:51;6.20;;;1.80;;
70052;SDS011;57398;52.032;4.376;2022-07-10T02:24:19;4.95;;;1.80;;
70052;SDS011;57398;52.032;4.376;2022-07-10T02:26:46;5.25;;;1.98;;
70052;SDS011;57398;52.032;4.376;2022-07-10T02:29:15;7.00;;;1.90;;
70052;SDS011;57398;52.032;4.376;2022-07-10T02:31:44;6.80;;;1.92;;
70052;SDS011;57398;52.032;4.376;2022-07-10T02:34:11;5.38;;;1.70;;
70052;SDS011;57398;52.032;4.376;2022-07-10T02:36:39;6.05;;;1.98;;
70052;SDS011;57398;52.032;4.376;2022-07-10T02:39:07;6.50;;;1.80;;
70052;SDS011;57398;52.032;4.376;2022-07-10T02:41:35;4.53;;;2.10;;
70052;SDS011;57398;52.032;4.376;2022-07-10T02:44:02;6.47;;;2.00;;
70052;SDS011;57398;52.032;4.376;2022-07-10T02:46:31;5.30;;;1.75;;
70052;SDS011;57398;52.032;4.376;2022-07-10T02:48:59;5.63;;;2.08;;
70052;SDS011;57398;52.032;4.376;2022-07-10T02:51:27;5.63;;;2.00;;
70052;SDS011;57398;52.032;4.376;2022-07-10T02:53:55;6.83;;;2.00;;
70052;SDS011;57398;52.032;4.376;2022-07-10T02:56:23;4.20;;;1.80;;
70052;SDS011;57398;52.032;4.376;2022-07-10T02:58:50;6.50;;;1.95;;
70052;SDS011;57398;52.032;4.376;2022-07-10T03:01:18;6.10;;;2.25;;
70052;SDS011;57398;52.032;4.376;2022-07-10T03:03:47;7.32;;;2.20;;
70052;SDS011;57398;52.032;4.376;2022-07-10T03:06:15;5.03;;;1.90;;
70052;SDS011;57398;52.032;4.376;2022-07-10T03:08:42;8.82;;;2.30;;
70052;SDS011;57398;52.032;4.376;2022-07-10T03:11:09;5.35;;;2.10;;
70052;SDS011;57398;52.032;4.376;2022-07-10T03:13:37;5.43;;;1.63;;
70052;SDS011;57398;52.032;4.376;2022-07-10T03:16:05;5.65;;;1.77;;
70052;SDS011;57398;52.032;4.376;2022-07-10T03:18:32;7.13;;;2.00;;
70052;SDS011;57398;52.032;4.376;2022-07-10T03:21:01;5.50;;;1.60;;
70052;SDS011;57398;52.032;4.376;2022-07-10T03:23:29;5.70;;;2.17;;
70052;SDS011;57398;52.032;4.376;2022-07-10T03:25:57;7.22;;;1.83;;
70052;SDS011;57398;52.032;4.376;2022-07-10T03:28:24;6.60;;;1.90;;
70052;SDS011;57398;52.032;4.376;2022-07-10T03:30:52;6.23;;;1.70;;
70052;SDS011;57398;52.032;4.376;2022-07-10T03:33:19;8.30;;;2.05;;
70052;SDS011;57398;52.032;4.376;2022-07-10T03:35:47;4.25;;;1.60;;
70052;SDS011;57398;52.032;4.376;2022-07-10T03:38:18;5.80;;;1.80;;
70052;SDS011;57398;52.032;4.376;2022-07-10T03:40:46;9.43;;;1.98;;
70052;SDS011;57398;52.032;4.376;2022-07-10T03:43:14;7.77;;;2.17;;
70052;SDS011;57398;52.032;4.376;2022-07-10T03:45:42;5.47;;;1.80;;
70052;SDS011;57398;52.032;4.376;2022-07-10T03:48:09;6.45;;;1.67;;
70052;SDS011;57398;52.032;4.376;2022-07-10T03:50:37;5.45;;;1.90;;
70052;SDS011;57398;52.032;4.376;2022-07-10T03:53:05;4.97;;;1.88;;
70052;SDS011;57398;52.032;4.376;2022-07-10T03:55:34;7.60;;;1.90;;
70052;SDS011;57398;52.032;4.376;2022-07-10T03:58:02;3.80;;;1.70;;
70052;SDS011;57398;52.032;4.376;2022-07-10T04:00:29;6.57;;;1.80;;
70052;SDS011;57398;52.032;4.376;2022-07-10T04:03:02;5.53;;;1.70;;
70052;SDS011;57398;52.032;4.376;2022-07-10T04:05:30;5.85;;;1.80;;
70052;SDS011;57398;52.032;4.376;2022-07-10T04:07:59;4.70;;;1.67;;
70052;SDS011;57398;52.032;4.376;2022-07-10T04:10:27;5.65;;;1.60;;
70052;SDS011;57398;52.032;4.376;2022-07-10T04:12:56;5.93;;;1.80;;
70052;SDS011;57398;52.032;4.376;2022-07-10T04:15:24;5.22;;;1.70;;
70052;SDS011;57398;52.032;4.376;2022-07-10T04:17:52;8.27;;;1.80;;
70052;SDS011;57398;52.032;4.376;2022-07-10T04:20:20;4.50;;;1.43;;
70052;SDS011;57398;52.032;4.376;2022-07-10T04:22:47;4.25;;;1.60;;
70052;SDS011;57398;52.032;4.376;2022-07-10T04:25:15;7.82;;;1.77;;
70052;SDS011;57398;52.032;4.376;2022-07-10T04:27:42;4.72;;;1.58;;
70052;SDS011;57398;52.032;4.376;2022-07-10T04:30:11;5.90;;;1.70;;
70052;SDS011;57398;52.032;4.376;2022-07-10T04:32:39;5.23;;;1.50;;
70052;SDS011;57398;52.032;4.376;2022-07-10T04:35:07;4.07;;;1.60;;
70052;SDS011;57398;52.032;4.376;2022-07-10T04:37:34;4.97;;;1.45;;
70052;SDS011;57398;52.032;4.376;2022-07-10T04:40:03;4.90;;;1.20;;
70052;SDS011;57398;52.032;4.376;2022-07-10T04:42:31;5.22;;;1.45;;
70052;SDS011;57398;52.032;4.376;2022-07-10T04:44:58;4.37;;;1.67;;
70052;SDS011;57398;52.032;4.376;2022-07-10T04:47:28;4.70;;;1.27;;
70052;SDS011;57398;52.032;4.376;2022-07-10T04:49:55;6.43;;;1.50;;
70052;SDS011;57398;52.032;4.376;2022-07-10T04:52:24;7.60;;;1.60;;
70052;SDS011;57398;52.032;4.376;2022-07-10T04:54:51;5.60;;;1.55;;
70052;SDS011;57398;52.032;4.376;2022-07-10T04:57:19;6.50;;;1.50;;
70052;SDS011;57398;52.032;4.376;2022-07-10T04:59:47;4.15;;;1.48;;
70052;SDS011;57398;52.032;4.376;2022-07-10T05:02:14;6.35;;;1.70;;
70052;SDS011;57398;52.032;4.376;2022-07-10T05:04:44;5.07;;;1.70;;
70052;SDS011;57398;52.032;4.376;2022-07-10T05:07:11;5.38;;;1.52;;
70052;SDS011;57398;52.032;4.376;2022-07-10T05:09:40;5.43;;;1.40;;
70052;SDS011;57398;52.032;4.376;2022-07-10T05:12:08;4.53;;;1.42;;
70052;SDS011;57398;52.032;4.376;2022-07-10T05:14:35;5.10;;;1.48;;
70052;SDS011;57398;52.032;4.376;2022-07-10T05:17:03;4.55;;;1.50;;
70052;SDS011;57398;52.032;4.376;2022-07-10T05:19:31;4.53;;;1.48;;
70052;SDS011;57398;52.032;4.376;2022-07-10T05:22:00;5.20;;;1.60;;
70052;SDS011;57398;52.032;4.376;2022-07-10T05:24:27;4.32;;;1.38;;
70052;SDS011;57398;52.032;4.376;2022-07-10T05:26:55;5.53;;;1.67;;
70052;SDS011;57398;52.032;4.376;2022-07-10T05:29:22;5.60;;;1.88;;
70052;SDS011;57398;52.032;4.376;2022-07-10T05:31:50;4.78;;;1.52;;
70052;SDS011;57398;52.032;4.376;2022-07-10T05:34:18;7.00;;;1.57;;
70052;SDS011;57398;52.032;4.376;2022-07-10T05:36:45;3.90;;;1.52;;
70052;SDS011;57398;52.032;4.376;2022-07-10T05:39:14;5.30;;;1.45;;
70052;SDS011;57398;52.032;4.376;2022-07-10T05:41:42;5.72;;;1.40;;
70052;SDS011;57398;52.032;4.376;2022-07-10T05:44:09;4.53;;;1.40;;
70052;SDS011;57398;52.032;4.376;2022-07-10T05:46:37;6.23;;;1.60;;
70052;SDS011;57398;52.032;4.376;2022-07-10T05:49:07;4.78;;;1.50;;
70052;SDS011;57398;52.032;4.376;2022-07-10T05:51:34;5.60;;;1.52;;
70052;SDS011;57398;52.032;4.376;2022-07-10T05:54:10;4.15;;;1.40;;
70052;SDS011;57398;52.032;4.376;2022-07-10T05:56:40;5.68;;;2.10;;
70052;SDS011;57398;52.032;4.376;2022-07-10T05:59:07;5.40;;;1.57;;
70052;SDS011;57398;52.032;4.376;2022-07-10T06:01:35;6.25;;;2.08;;
70052;SDS011;57398;52.032;4.376;2022-07-10T06:04:05;5.65;;;1.85;;
70052;SDS011;57398;52.032;4.376;2022-07-10T06:06:33;6.30;;;1.63;;
70052;SDS011;57398;52.032;4.376;2022-07-10T06:09:01;5.60;;;1.55;;
70052;SDS011;57398;52.032;4.376;2022-07-10T06:11:29;7.23;;;1.90;;
70052;SDS011;57398;52.032;4.376;2022-07-10T06:13:58;6.00;;;1.60;;
70052;SDS011;57398;52.032;4.376;2022-07-10T06:16:27;5.00;;;1.55;;
70052;SDS011;57398;52.032;4.376;2022-07-10T06:18:54;4.32;;;1.52;;
70052;SDS011;57398;52.032;4.376;2022-07-10T06:21:22;6.68;;;1.70;;
70052;SDS011;57398;52.032;4.376;2022-07-10T06:23:49;5.53;;;1.60;;
70052;SDS011;57398;52.032;4.376;2022-07-10T06:26:17;5.72;;;1.55;;
70052;SDS011;57398;52.032;4.376;2022-07-10T06:28:46;4.88;;;1.70;;
70052;SDS011;57398;52.032;4.376;2022-07-10T06:31:15;3.92;;;1.60;;
70052;SDS011;57398;52.032;4.376;2022-07-10T06:33:43;4.88;;;1.63;;
70052;SDS011;57398;52.032;4.376;2022-07-10T06:36:11;6.13;;;1.60;;
70052;SDS011;57398;52.032;4.376;2022-07-10T06:38:39;4.78;;;1.60;;
70052;SDS011;57398;52.032;4.376;2022-07-10T06:41:08;4.70;;;1.70;;
70052;SDS011;57398;52.032;4.376;2022-07-10T06:43:36;5.65;;;1.70;;
70052;SDS011;57398;52.032;4.376;2022-07-10T06:46:03;4.85;;;1.50;;
70052;SDS011;57398;52.032;4.376;2022-07-10T06:48:32;4.80;;;1.50;;
70052;SDS011;57398;52.032;4.376;2022-07-10T06:50:59;4.93;;;1.50;;
70052;SDS011;57398;52.032;4.376;2022-07-10T06:53:27;4.78;;;1.38;;
70052;SDS011;57398;52.032;4.376;2022-07-10T06:55:54;4.13;;;1.60;;
70052;SDS011;57398;52.032;4.376;2022-07-10T06:58:22;4.22;;;1.52;;
70052;SDS011;57398;52.032;4.376;2022-07-10T07:00:50;3.73;;;1.50;;
70052;SDS011;57398;52.032;4.376;2022-07-10T07:03:17;5.43;;;1.63;;
70052;SDS011;57398;52.032;4.376;2022-07-10T07:05:47;5.70;;;1.40;;
70052;SDS011;57398;52.032;4.376;2022-07-10T07:08:15;7.20;;;1.30;;
70052;SDS011;57398;52.032;4.376;2022-07-10T07:10:43;6.22;;;1.70;;
70052;SDS011;57398;52.032;4.376;2022-07-10T07:13:10;3.50;;;1.50;;
70052;SDS011;57398;52.032;4.376;2022-07-10T07:15:38;5.45;;;1.73;;
70052;SDS011;57398;52.032;4.376;2022-07-10T07:18:09;4.00;;;1.35;;
70052;SDS011;57398;52.032;4.376;2022-07-10T07:20:38;5.47;;;1.67;;
70052;SDS011;57398;52.032;4.376;2022-07-10T07:23:25;4.10;;;1.30;;
70052;SDS011;57398;52.032;4.376;2022-07-10T07:25:53;3.73;;;1.20;;
70052;SDS011;57398;52.032;4.376;2022-07-10T07:28:22;4.95;;;1.40;;
70052;SDS011;57398;52.032;4.376;2022-07-10T07:30:50;7.35;;;1.65;;
70052;SDS011;57398;52.032;4.376;2022-07-10T07:33:17;3.13;;;1.38;;
70052;SDS011;57398;52.032;4.376;2022-07-10T07:35:45;5.63;;;1.55;;
70052;SDS011;57398;52.032;4.376;2022-07-10T07:38:12;4.20;;;1.83;;
70052;SDS011;57398;52.032;4.376;2022-07-10T07:40:41;4.32;;;1.42;;
70052;SDS011;57398;52.032;4.376;2022-07-10T07:43:09;5.05;;;1.45;;
70052;SDS011;57398;52.032;4.376;2022-07-10T07:45:36;5.10;;;1.33;;
70052;SDS011;57398;52.032;4.376;2022-07-10T07:48:04;3.35;;;1.30;;
70052;SDS011;57398;52.032;4.376;2022-07-10T07:50:32;5.10;;;1.37;;
70052;SDS011;57398;52.032;4.376;2022-07-10T07:53:00;5.05;;;1.35;;
70052;SDS011;57398;52.032;4.376;2022-07-10T07:55:28;4.07;;;1.40;;
70052;SDS011;57398;52.032;4.376;2022-07-10T07:57:57;4.32;;;1.27;;
70052;SDS011;57398;52.032;4.376;2022-07-10T08:00:25;6.22;;;1.33;;
70052;SDS011;57398;52.032;4.376;2022-07-10T08:02:54;4.37;;;1.40;;
70052;SDS011;57398;52.032;4.376;2022-07-10T08:05:22;5.95;;;1.40;;
70052;SDS011;57398;52.032;4.376;2022-07-10T08:07:50;5.80;;;1.70;;
70052;SDS011;57398;52.032;4.376;2022-07-10T08:10:19;4.80;;;1.40;;
70052;SDS011;57398;52.032;4.376;2022-07-10T08:12:47;3.58;;;1.20;;
70052;SDS011;57398;52.032;4.376;2022-07-10T08:15:18;5.87;;;1.23;;
70052;SDS011;57398;52.032;4.376;2022-07-10T08:17:46;4.10;;;1.23;;
70052;SDS011;57398;52.032;4.376;2022-07-10T08:20:15;4.15;;;1.45;;
70052;SDS011;57398;52.032;4.376;2022-07-10T08:22:42;3.70;;;1.27;;
70052;SDS011;57398;52.032;4.376;2022-07-10T08:25:10;5.05;;;1.50;;
70052;SDS011;57398;52.032;4.376;2022-07-10T08:27:38;4.37;;;1.30;;
70052;SDS011;57398;52.032;4.376;2022-07-10T08:30:06;4.43;;;1.20;;
70052;SDS011;57398;52.032;4.376;2022-07-10T08:32:36;4.60;;;1.38;;
70052;SDS011;57398;52.032;4.376;2022-07-10T08:35:05;5.18;;;1.50;;
70052;SDS011;57398;52.032;4.376;2022-07-10T08:37:36;3.95;;;1.30;;
70052;SDS011;57398;52.032;4.376;2022-07-10T08:40:04;4.80;;;1.40;;
70052;SDS011;57398;52.032;4.376;2022-07-10T08:42:32;5.85;;;1.40;;
70052;SDS011;57398;52.032;4.376;2022-07-10T08:45:00;5.43;;;1.77;;
70052;SDS011;57398;52.032;4.376;2022-07-10T08:47:27;5.25;;;1.40;;
70052;SDS011;57398;52.032;4.376;2022-07-10T08:50:05;4.07;;;1.23;;
70052;SDS011;57398;52.032;4.376;2022-07-10T08:52:33;6.17;;;1.50;;
70052;SDS011;57398;52.032;4.376;2022-07-10T08:55:01;9.13;;;4.35;;
70052;SDS011;57398;52.032;4.376;2022-07-10T08:57:29;4.47;;;1.60;;
70052;SDS011;57398;52.032;4.376;2022-07-10T08:59:57;4.97;;;1.50;;
70052;SDS011;57398;52.032;4.376;2022-07-10T09:02:25;5.80;;;1.70;;
70052;SDS011;57398;52.032;4.376;2022-07-10T09:04:53;5.83;;;1.80;;
70052;SDS011;57398;52.032;4.376;2022-07-10T09:07:22;3.80;;;1.65;;
70052;SDS011;57398;52.032;4.376;2022-07-10T09:09:51;4.10;;;1.25;;
70052;SDS011;57398;52.032;4.376;2022-07-10T09:12:20;6.28;;;2.17;;
70052;SDS011;57398;52.032;4.376;2022-07-10T09:14:48;5.10;;;1.50;;
70052;SDS011;57398;52.032;4.376;2022-07-10T09:17:16;5.27;;;1.50;;
70052;SDS011;57398;52.032;4.376;2022-07-10T09:19:44;4.53;;;1.30;;
70052;SDS011;57398;52.032;4.376;2022-07-10T09:22:12;3.60;;;1.30;;
70052;SDS011;57398;52.032;4.376;2022-07-10T09:24:43;3.60;;;1.10;;
70052;SDS011;57398;52.032;4.376;2022-07-10T09:27:11;3.42;;;1.30;;
70052;SDS011;57398;52.032;4.376;2022-07-10T09:29:48;4.47;;;1.30;;
70052;SDS011;57398;52.032;4.376;2022-07-10T09:32:21;3.92;;;1.30;;
70052;SDS011;57398;52.032;4.376;2022-07-10T09:34:49;5.72;;;1.30;;
70052;SDS011;57398;52.032;4.376;2022-07-10T09:37:38;4.43;;;1.40;;
70052;SDS011;57398;52.032;4.376;2022-07-10T09:40:08;4.22;;;1.30;;
70052;SDS011;57398;52.032;4.376;2022-07-10T09:42:36;4.67;;;1.37;;
70052;SDS011;57398;52.032;4.376;2022-07-10T09:45:13;3.83;;;1.40;;
70052;SDS011;57398;52.032;4.376;2022-07-10T09:47:43;3.60;;;1.50;;
70052;SDS011;57398;52.032;4.376;2022-07-10T09:50:21;5.00;;;1.30;;
70052;SDS011;57398;52.032;4.376;2022-07-10T09:52:49;3.75;;;1.40;;
70052;SDS011;57398;52.032;4.376;2022-07-10T09:55:19;4.57;;;1.47;;
70052;SDS011;57398;52.032;4.376;2022-07-10T09:57:52;3.42;;;1.20;;
70052;SDS011;57398;52.032;4.376;2022-07-10T10:00:21;4.85;;;1.48;;
70052;SDS011;57398;52.032;4.376;2022-07-10T10:02:53;3.70;;;1.30;;
70052;SDS011;57398;52.032;4.376;2022-07-10T10:05:22;4.07;;;1.40;;
70052;SDS011;57398;52.032;4.376;2022-07-10T10:07:52;3.40;;;1.10;;
70052;SDS011;57398;52.032;4.376;2022-07-10T10:10:22;4.70;;;1.40;;
70052;SDS011;57398;52.032;4.376;2022-07-10T10:12:53;4.65;;;1.40;;
70052;SDS011;57398;52.032;4.376;2022-07-10T10:15:24;4.75;;;1.40;;
70052;SDS011;57398;52.032;4.376;2022-07-10T10:17:52;5.63;;;1.70;;
70052;SDS011;57398;52.032;4.376;2022-07-10T10:20:21;3.73;;;1.27;;
70052;SDS011;57398;52.032;4.376;2022-07-10T10:23:04;3.50;;;1.30;;
70052;SDS011;57398;52.032;4.376;2022-07-10T10:25:33;3.83;;;1.40;;
70052;SDS011;57398;52.032;4.376;2022-07-10T10:28:01;3.67;;;1.20;;
70052;SDS011;57398;52.032;4.376;2022-07-10T10:30:30;5.65;;;1.30;;
70052;SDS011;57398;52.032;4.376;2022-07-10T10:32:58;5.07;;;1.30;;
70052;SDS011;57398;52.032;4.376;2022-07-10T10:35:41;3.08;;;1.17;;
70052;SDS011;57398;52.032;4.376;2022-07-10T10:38:09;3.50;;;1.30;;
70052;SDS011;57398;52.032;4.376;2022-07-10T10:40:38;3.08;;;1.27;;
70052;SDS011;57398;52.032;4.376;2022-07-10T10:43:15;5.65;;;1.60;;
70052;SDS011;57398;52.032;4.376;2022-07-10T10:45:43;4.03;;;1.40;;
70052;SDS011;57398;52.032;4.376;2022-07-10T10:48:12;3.50;;;1.25;;
70052;SDS011;57398;52.032;4.376;2022-07-10T10:51:00;4.07;;;1.30;;
70052;SDS011;57398;52.032;4.376;2022-07-10T10:53:28;3.90;;;1.50;;
70052;SDS011;57398;52.032;4.376;2022-07-10T10:58:45;4.77;;;1.30;;
70052;SDS011;57398;52.032;4.376;2022-07-10T11:01:28;3.90;;;1.40;;
70052;SDS011;57398;52.032;4.376;2022-07-10T11:04:13;5.28;;;1.33;;
70052;SDS011;57398;52.032;4.376;2022-07-10T11:06:42;3.10;;;1.38;;
70052;SDS011;57398;52.032;4.376;2022-07-10T11:09:25;3.95;;;1.40;;
70052;SDS011;57398;52.032;4.376;2022-07-10T11:12:03;2.80;;;1.13;;
70052;SDS011;57398;52.032;4.376;2022-07-10T11:14:33;4.13;;;1.00;;
70052;SDS011;57398;52.032;4.376;2022-07-10T11:17:02;4.35;;;1.10;;
70052;SDS011;57398;52.032;4.376;2022-07-10T11:19:30;2.65;;;0.80;;
70052;SDS011;57398;52.032;4.376;2022-07-10T11:24:49;3.43;;;1.10;;
70052;SDS011;57398;52.032;4.376;2022-07-10T11:27:27;3.75;;;1.08;;
70052;SDS011;57398;52.032;4.376;2022-07-10T11:29:57;3.58;;;1.20;;
70052;SDS011;57398;52.032;4.376;2022-07-10T11:32:25;2.63;;;1.10;;
70052;SDS011;57398;52.032;4.376;2022-07-10T11:34:53;2.85;;;1.00;;
70052;SDS011;57398;52.032;4.376;2022-07-10T11:37:21;2.90;;;1.10;;
70052;SDS011;57398;52.032;4.376;2022-07-10T11:39:51;4.60;;;1.20;;
70052;SDS011;57398;52.032;4.376;2022-07-10T11:42:19;2.45;;;0.90;;
70052;SDS011;57398;52.032;4.376;2022-07-10T11:44:46;2.58;;;1.00;;
70052;SDS011;57398;52.032;4.376;2022-07-10T11:47:15;2.92;;;1.02;;
70052;SDS011;57398;52.032;4.376;2022-07-10T11:49:46;2.47;;;0.80;;
70052;SDS011;57398;52.032;4.376;2022-07-10T11:52:14;2.30;;;1.00;;
70052;SDS011;57398;52.032;4.376;2022-07-10T11:54:42;3.72;;;1.08;;
70052;SDS011;57398;52.032;4.376;2022-07-10T11:57:10;4.35;;;1.50;;
70052;SDS011;57398;52.032;4.376;2022-07-10T11:59:38;4.20;;;1.20;;
70052;SDS011;57398;52.032;4.376;2022-07-10T12:02:06;3.43;;;1.20;;
70052;SDS011;57398;52.032;4.376;2022-07-10T12:04:35;2.85;;;1.00;;
70052;SDS011;57398;52.032;4.376;2022-07-10T12:07:03;2.90;;;0.93;;
70052;SDS011;57398;52.032;4.376;2022-07-10T12:09:30;3.72;;;1.10;;
70052;SDS011;57398;52.032;4.376;2022-07-10T12:11:59;2.90;;;1.00;;
70052;SDS011;57398;52.032;4.376;2022-07-10T12:14:27;4.27;;;1.17;;
70052;SDS011;57398;52.032;4.376;2022-07-10T12:16:54;3.58;;;1.38;;
70052;SDS011;57398;52.032;4.376;2022-07-10T12:19:24;3.63;;;1.17;;
70052;SDS011;57398;52.032;4.376;2022-07-10T12:21:53;3.22;;;1.20;;
70052;SDS011;57398;52.032;4.376;2022-07-10T12:24:23;3.03;;;1.10;;
70052;SDS011;57398;52.032;4.376;2022-07-10T12:26:51;3.33;;;1.10;;
70052;SDS011;57398;52.032;4.376;2022-07-10T12:29:19;5.82;;;1.10;;
70052;SDS011;57398;52.032;4.376;2022-07-10T12:31:47;4.20;;;0.98;;
70052;SDS011;57398;52.032;4.376;2022-07-10T12:34:15;2.45;;;0.90;;
70052;SDS011;57398;52.032;4.376;2022-07-10T12:36:44;4.10;;;1.10;;
70052;SDS011;57398;52.032;4.376;2022-07-10T12:39:13;3.10;;;1.10;;
70052;SDS011;57398;52.032;4.376;2022-07-10T12:41:54;4.07;;;1.10;;
70052;SDS011;57398;52.032;4.376;2022-07-10T12:47:14;4.75;;;1.25;;
70052;SDS011;57398;52.032;4.376;2022-07-10T12:49:48;4.60;;;1.10;;
70052;SDS011;57398;52.032;4.376;2022-07-10T12:52:20;4.03;;;1.20;;
70052;SDS011;57398;52.032;4.376;2022-07-10T12:55:11;4.47;;;1.40;;
70052;SDS011;57398;52.032;4.376;2022-07-10T12:57:47;5.88;;;1.60;;
70052;SDS011;57398;52.032;4.376;2022-07-10T13:00:15;4.63;;;1.60;;
70052;SDS011;57398;52.032;4.376;2022-07-10T13:02:45;4.32;;;1.50;;
70052;SDS011;57398;52.032;4.376;2022-07-10T13:05:26;3.77;;;1.43;;
70052;SDS011;57398;52.032;4.376;2022-07-10T13:08:03;5.03;;;1.70;;
70052;SDS011;57398;52.032;4.376;2022-07-10T13:10:34;4.07;;;1.23;;
70052;SDS011;57398;52.032;4.376;2022-07-10T13:13:02;4.63;;;1.70;;
70052;SDS011;57398;52.032;4.376;2022-07-10T13:15:30;5.57;;;1.67;;
70052;SDS011;57398;52.032;4.376;2022-07-10T13:17:58;4.10;;;1.80;;
70052;SDS011;57398;52.032;4.376;2022-07-10T13:20:28;7.88;;;1.80;;
70052;SDS011;57398;52.032;4.376;2022-07-10T13:22:55;6.85;;;1.90;;
70052;SDS011;57398;52.032;4.376;2022-07-10T13:25:23;6.53;;;1.92;;
70052;SDS011;57398;52.032;4.376;2022-07-10T13:27:52;5.57;;;1.83;;
70052;SDS011;57398;52.032;4.376;2022-07-10T13:30:20;4.20;;;1.50;;
70052;SDS011;57398;52.032;4.376;2022-07-10T13:32:48;4.32;;;1.80;;
70052;SDS011;57398;52.032;4.376;2022-07-10T13:35:15;5.82;;;1.83;;
70052;SDS011;57398;52.032;4.376;2022-07-10T13:37:43;5.10;;;1.90;;
70052;SDS011;57398;52.032;4.376;2022-07-10T13:40:11;6.82;;;2.05;;
70052;SDS011;57398;52.032;4.376;2022-07-10T13:42:39;4.30;;;1.80;;
70052;SDS011;57398;52.032;4.376;2022-07-10T13:45:08;4.10;;;1.70;;
70052;SDS011;57398;52.032;4.376;2022-07-10T13:47:35;4.13;;;1.80;;
70052;SDS011;57398;52.032;4.376;2022-07-10T13:50:03;5.15;;;2.00;;
70052;SDS011;57398;52.032;4.376;2022-07-10T13:52:31;4.97;;;2.00;;
70052;SDS011;57398;52.032;4.376;2022-07-10T13:54:58;5.63;;;2.00;;
70052;SDS011;57398;52.032;4.376;2022-07-10T13:57:27;5.65;;;1.90;;
70052;SDS011;57398;52.032;4.376;2022-07-10T13:59:54;5.53;;;2.13;;
70052;SDS011;57398;52.032;4.376;2022-07-10T14:02:23;5.05;;;1.90;;
70052;SDS011;57398;52.032;4.376;2022-07-10T14:04:52;4.93;;;1.80;;
70052;SDS011;57398;52.032;4.376;2022-07-10T14:07:19;7.23;;;1.90;;
70052;SDS011;57398;52.032;4.376;2022-07-10T14:09:47;5.32;;;2.00;;
70052;SDS011;57398;52.032;4.376;2022-07-10T14:12:15;7.28;;;1.92;;
70052;SDS011;57398;52.032;4.376;2022-07-10T14:14:42;5.30;;;1.90;;
70052;SDS011;57398;52.032;4.376;2022-07-10T14:17:10;4.55;;;1.90;;
70052;SDS011;57398;52.032;4.376;2022-07-10T14:19:40;5.17;;;2.30;;
70052;SDS011;57398;52.032;4.376;2022-07-10T14:22:07;5.28;;;2.28;;
70052;SDS011;57398;52.032;4.376;2022-07-10T14:24:35;6.97;;;2.03;;
70052;SDS011;57398;52.032;4.376;2022-07-10T14:27:05;4.47;;;2.03;;
70052;SDS011;57398;52.032;4.376;2022-07-10T14:29:33;5.72;;;1.85;;
70052;SDS011;57398;52.032;4.376;2022-07-10T14:32:01;5.60;;;1.67;;
70052;SDS011;57398;52.032;4.376;2022-07-10T14:34:28;5.15;;;1.90;;
70052;SDS011;57398;52.032;4.376;2022-07-10T14:36:57;6.05;;;2.00;;
70052;SDS011;57398;52.032;4.376;2022-07-10T14:39:26;4.03;;;1.80;;
70052;SDS011;57398;52.032;4.376;2022-07-10T14:41:53;4.93;;;1.73;;
70052;SDS011;57398;52.032;4.376;2022-07-10T14:44:22;4.70;;;1.60;;
70052;SDS011;57398;52.032;4.376;2022-07-10T14:46:49;5.10;;;2.00;;
70052;SDS011;57398;52.032;4.376;2022-07-10T14:49:17;5.20;;;2.10;;
70052;SDS011;57398;52.032;4.376;2022-07-10T14:51:44;14.10;;;2.10;;
70052;SDS011;57398;52.032;4.376;2022-07-10T14:54:14;6.82;;;2.40;;
70052;SDS011;57398;52.032;4.376;2022-07-10T14:56:41;5.33;;;1.80;;
70052;SDS011;57398;52.032;4.376;2022-07-10T14:59:10;5.53;;;1.80;;
70052;SDS011;57398;52.032;4.376;2022-07-10T15:01:40;4.22;;;2.00;;
70052;SDS011;57398;52.032;4.376;2022-07-10T15:04:08;5.13;;;1.67;;
70052;SDS011;57398;52.032;4.376;2022-07-10T15:06:35;5.65;;;2.17;;